Time;durP1;ratioP1;P1;durP2;ratioP2;P2;SDS_P1;SDS_P2;PMS_P1;PMS_P2;Temp;Humidity;BMP_temperature;BMP_pressure;BME280_temperature;BME280_humidity;BME280_pressure;Samples;Min_cycle;Max_cycle;Signal;HPM_P1;HPM_P2
2021/08/05 00:02:08;;;;;;;4.28;1.90;;;18.50;90.00;;;;;;5012758;28;20030;-82
2021/08/05 00:04:34;;;;;;;4.35;2.00;;;18.40;90.10;;;;;;5012713;28;20049;-82
2021/08/05 00:06:59;;;;;;;2.90;1.95;;;18.40;90.20;;;;;;5013588;28;20526;-82
2021/08/05 00:09:25;;;;;;;4.68;2.20;;;18.40;90.20;;;;;;5017253;28;20538;-82
2021/08/05 00:11:51;;;;;;;4.10;1.83;;;18.40;90.20;;;;;;5015600;28;20459;-82
2021/08/05 00:14:16;;;;;;;2.53;1.63;;;18.30;90.30;;;;;;5016105;28;20036;-82
2021/08/05 00:16:42;;;;;;;3.78;1.70;;;18.30;90.40;;;;;;5015395;28;20022;-83
2021/08/05 00:19:08;;;;;;;2.72;1.80;;;18.30;90.40;;;;;;5032460;28;20459;-82
2021/08/05 00:21:37;;;;;;;2.92;1.73;;;18.30;90.40;;;;;;5015814;28;20439;-82
2021/08/05 00:24:03;;;;;;;2.53;1.80;;;18.30;90.50;;;;;;5016356;28;20112;-82
2021/08/05 00:26:31;;;;;;;3.88;1.88;;;18.20;90.50;;;;;;5016787;28;20498;-82
2021/08/05 00:28:57;;;;;;;4.40;2.10;;;18.20;90.60;;;;;;5031881;28;20018;-82
2021/08/05 00:31:22;;;;;;;2.63;1.70;;;18.20;90.60;;;;;;5015815;28;20021;-83
2021/08/05 00:33:48;;;;;;;3.10;1.60;;;18.20;90.70;;;;;;5015067;28;20021;-82
2021/08/05 00:36:14;;;;;;;3.78;1.90;;;18.20;90.70;;;;;;5014968;28;20042;-82
2021/08/05 00:38:39;;;;;;;4.15;2.03;;;18.20;90.70;;;;;;5015619;28;20124;-82
2021/08/05 00:41:06;;;;;;;2.60;1.60;;;18.10;90.70;;;;;;5031544;28;20459;-82
2021/08/05 00:43:34;;;;;;;3.58;1.77;;;18.10;90.80;;;;;;5015422;28;20033;-83
2021/08/05 00:46:00;;;;;;;2.40;1.52;;;18.10;90.80;;;;;;5016061;28;20014;-82
2021/08/05 00:48:26;;;;;;;4.13;1.63;;;18.10;90.70;;;;;;5031780;28;20024;-84
2021/08/05 00:50:52;;;;;;;4.45;1.52;;;18.10;90.80;;;;;;5014762;28;20044;-83
2021/08/05 00:53:18;;;;;;;2.42;1.63;;;18.10;90.80;;;;;;5015255;28;20026;-82
2021/08/05 00:55:47;;;;;;;3.03;1.80;;;18.10;90.80;;;;;;5014941;28;20057;-90
2021/08/05 00:58:13;;;;;;;2.80;1.90;;;18.10;90.90;;;;;;5031480;28;20053;-81
2021/08/05 01:00:44;;;;;;;3.60;1.95;;;18.10;90.90;;;;;;5016295;28;20092;-81
2021/08/05 01:03:19;;;;;;;4.47;1.65;;;18.10;90.90;;;;;;5015099;28;20049;-82
2021/08/05 01:05:49;;;;;;;1.90;1.63;;;18.10;91.10;;;;;;5015511;28;20328;-88
2021/08/05 01:08:23;;;;;;;4.53;2.10;;;18.10;91.10;;;;;;5014905;28;20026;-80
2021/08/05 01:11:20;;;;;;;2.80;1.83;;;18.10;91.20;;;;;;5014594;28;20040;-81
2021/08/05 01:13:59;;;;;;;2.42;1.60;;;18.00;91.30;;;;;;5014225;28;20030;-81
2021/08/05 01:16:33;;;;;;;5.70;2.20;;;18.00;91.40;;;;;;5014623;28;20022;-80
2021/08/05 01:19:35;;;;;;;4.22;1.73;;;18.00;91.40;;;;;;5014462;28;20018;-80
2021/08/05 01:22:14;;;;;;;2.63;1.63;;;18.00;91.40;;;;;;5007429;28;20083;-80
2021/08/05 01:24:49;;;;;;;2.97;1.60;;;18.00;91.40;;;;;;5014596;28;20033;-80
2021/08/05 01:27:16;;;;;;;3.25;1.80;;;18.00;91.50;;;;;;5014368;28;20022;-81
2021/08/05 01:29:43;;;;;;;4.50;1.83;;;18.00;91.50;;;;;;5014382;28;20026;-80
2021/08/05 01:32:09;;;;;;;3.70;2.15;;;18.00;91.50;;;;;;5013995;28;20030;-80
2021/08/05 01:34:36;;;;;;;4.47;2.08;;;18.00;91.50;;;;;;5014392;28;20045;-80
2021/08/05 01:37:04;;;;;;;3.65;2.08;;;18.00;91.60;;;;;;5013799;28;20554;-80
2021/08/05 01:39:30;;;;;;;4.32;2.20;;;17.90;91.60;;;;;;5013815;28;20026;-80
2021/08/05 01:41:56;;;;;;;5.03;2.00;;;17.90;91.60;;;;;;5013776;28;20022;-81
2021/08/05 01:44:23;;;;;;;2.85;1.80;;;17.90;91.70;;;;;;5015320;28;20030;-81
2021/08/05 01:46:49;;;;;;;5.82;1.90;;;17.90;91.70;;;;;;5013793;28;20026;-81
2021/08/05 01:49:16;;;;;;;2.72;1.63;;;17.90;91.70;;;;;;5015271;28;20057;-81
2021/08/05 01:51:42;;;;;;;4.75;2.00;;;17.90;91.70;;;;;;5015369;28;20033;-81
2021/08/05 01:54:10;;;;;;;3.22;2.15;;;17.90;91.70;;;;;;5013396;28;20099;-80
2021/08/05 01:56:35;;;;;;;4.72;2.35;;;17.90;91.80;;;;;;5013949;28;20022;-80
2021/08/05 01:59:01;;;;;;;4.65;2.30;;;17.90;91.90;;;;;;5030055;28;20018;-80
2021/08/05 02:01:27;;;;;;;3.55;2.20;;;17.80;92.10;;;;;;5014173;28;20104;-80
2021/08/05 02:04:12;;;;;;;2.95;2.20;;;17.80;92.10;;;;;;5013401;28;20033;-80
2021/08/05 02:07:08;;;;;;;4.20;2.25;;;17.80;92.30;;;;;;5013463;28;20061;-80
2021/08/05 02:10:00;;;;;;;4.32;2.33;;;17.80;92.50;;;;;;5013282;28;20037;-80
2021/08/05 02:12:32;;;;;;;3.80;2.35;;;17.70;92.50;;;;;;4983825;28;20029;-81
2021/08/05 02:15:01;;;;;;;4.40;2.30;;;17.70;92.60;;;;;;5014357;28;20052;-80
2021/08/05 02:17:30;;;;;;;5.55;2.50;;;17.70;92.70;;;;;;5014825;28;20026;-79
2021/08/05 02:19:55;;;;;;;4.75;2.65;;;17.70;92.70;;;;;;5014469;28;20032;-80
2021/08/05 02:22:21;;;;;;;5.22;2.95;;;17.70;92.80;;;;;;5014809;28;20104;-80
2021/08/05 02:24:47;;;;;;;3.72;2.58;;;17.70;92.90;;;;;;5013506;28;20049;-80
2021/08/05 02:27:13;;;;;;;4.95;2.58;;;17.60;93.00;;;;;;5013106;28;20072;-79
2021/08/05 02:29:39;;;;;;;4.95;2.83;;;17.60;93.00;;;;;;5013082;28;20105;-80
2021/08/05 02:32:06;;;;;;;4.80;2.90;;;17.60;93.10;;;;;;5012965;28;20480;-80
2021/08/05 02:34:35;;;;;;;3.40;2.20;;;17.60;93.20;;;;;;5029512;28;20497;-80
2021/08/05 02:37:00;;;;;;;5.40;2.78;;;17.60;93.30;;;;;;5012580;28;20042;-81
2021/08/05 02:39:26;;;;;;;4.43;2.60;;;17.50;93.30;;;;;;5029683;28;20371;-81
2021/08/05 02:41:52;;;;;;;6.65;2.55;;;17.50;93.40;;;;;;5029372;28;20057;-81
2021/08/05 02:44:19;;;;;;;4.03;2.40;;;17.50;93.50;;;;;;5013241;28;20425;-81
2021/08/05 02:46:47;;;;;;;5.13;2.60;;;17.50;93.50;;;;;;5013051;28;20508;-81
2021/08/05 02:49:14;;;;;;;4.70;2.80;;;17.50;93.60;;;;;;5012676;28;20029;-81
2021/08/05 02:51:40;;;;;;;5.05;2.42;;;17.40;93.70;;;;;;5029537;28;20044;-81
2021/08/05 02:54:06;;;;;;;5.60;2.42;;;17.40;93.80;;;;;;5029166;28;20463;-81
2021/08/05 02:56:33;;;;;;;4.55;2.70;;;17.40;93.80;;;;;;5013003;28;20022;-80
2021/08/05 02:59:00;;;;;;;5.82;2.40;;;17.40;93.80;;;;;;5012457;28;20049;-80
2021/08/05 03:01:25;;;;;;;5.18;2.72;;;17.40;93.80;;;;;;5013688;28;20033;-80
2021/08/05 03:03:53;;;;;;;5.03;2.45;;;17.40;93.80;;;;;;5013446;28;20041;-88
2021/08/05 03:06:25;;;;;;;5.18;3.03;;;17.40;93.80;;;;;;5012637;28;20026;-80
2021/08/05 03:08:51;;;;;;;3.67;2.55;;;17.40;93.90;;;;;;5029252;28;20048;-89
2021/08/05 03:11:17;;;;;;;6.20;3.05;;;17.30;93.80;;;;;;5029337;28;20526;-81
2021/08/05 03:13:43;;;;;;;3.55;2.50;;;17.40;93.80;;;;;;5012613;28;20463;-81
2021/08/05 03:16:08;;;;;;;3.92;2.42;;;17.30;93.80;;;;;;5012329;28;20120;-80
2021/08/05 03:18:34;;;;;;;3.22;2.28;;;17.30;93.80;;;;;;5012823;28;20165;-81
2021/08/05 03:20:59;;;;;;;4.63;2.35;;;17.30;93.80;;;;;;5013483;28;20080;-81
2021/08/05 03:23:25;;;;;;;5.45;2.40;;;17.30;93.90;;;;;;5012620;28;20030;-81
2021/08/05 03:25:51;;;;;;;6.20;2.22;;;17.30;94.00;;;;;;5029386;28;20033;-79
2021/08/05 03:28:16;;;;;;;4.35;2.30;;;17.30;93.90;;;;;;5012550;28;20383;-81
2021/08/05 03:30:42;;;;;;;4.07;2.33;;;17.30;94.00;;;;;;5012757;28;20018;-81
2021/08/05 03:33:08;;;;;;;4.00;2.47;;;17.30;94.00;;;;;;5012179;28;20072;-81
2021/08/05 03:35:33;;;;;;;3.83;2.55;;;17.20;94.00;;;;;;5012710;28;20034;-81
2021/08/05 03:37:59;;;;;;;5.78;2.45;;;17.30;94.10;;;;;;5013493;28;20383;-81
2021/08/05 03:40:24;;;;;;;7.47;2.42;;;17.30;94.00;;;;;;5012815;28;20366;-81
2021/08/05 03:42:50;;;;;;;4.47;2.08;;;17.20;94.10;;;;;;5015997;28;20125;-81
2021/08/05 03:45:16;;;;;;;5.10;2.28;;;17.30;94.10;;;;;;5015963;28;20022;-80
2021/08/05 03:47:41;;;;;;;5.65;2.65;;;17.20;94.10;;;;;;5016497;28;20018;-80
2021/08/05 03:50:08;;;;;;;3.25;2.15;;;17.30;94.10;;;;;;5032427;28;20021;-81
2021/08/05 03:52:33;;;;;;;4.15;2.65;;;17.30;94.10;;;;;;5016369;28;20506;-80
2021/08/05 03:54:59;;;;;;;4.85;2.60;;;17.30;94.10;;;;;;5032464;28;20018;-81
2021/08/05 03:57:25;;;;;;;5.50;2.40;;;17.30;94.00;;;;;;5016269;28;20044;-81
2021/08/05 03:59:50;;;;;;;4.55;2.60;;;17.20;94.10;;;;;;5017341;28;20021;-80
2021/08/05 04:02:16;;;;;;;4.88;2.28;;;17.30;94.10;;;;;;5016878;28;20053;-80
2021/08/05 04:04:42;;;;;;;3.92;2.20;;;17.30;94.00;;;;;;5032792;28;20022;-80
2021/08/05 04:07:08;;;;;;;4.25;2.08;;;17.30;94.00;;;;;;5015224;28;20115;-82
2021/08/05 04:09:34;;;;;;;4.55;2.17;;;17.30;94.00;;;;;;5017253;28;20030;-82
2021/08/05 04:12:00;;;;;;;4.18;2.42;;;17.30;94.00;;;;;;5017056;28;20029;-83
2021/08/05 04:14:25;;;;;;;4.35;2.33;;;17.30;94.00;;;;;;5017208;28;20034;-82
2021/08/05 04:16:51;;;;;;;3.13;2.03;;;17.30;93.90;;;;;;5016269;28;20152;-82
2021/08/05 04:19:17;;;;;;;3.50;2.15;;;17.30;93.90;;;;;;5015864;28;20048;-83
2021/08/05 04:21:43;;;;;;;5.32;2.40;;;17.20;93.90;;;;;;5016304;28;20029;-81
2021/08/05 04:24:09;;;;;;;6.47;2.75;;;17.20;93.90;;;;;;5015855;28;20033;-81
2021/08/05 04:26:34;;;;;;;6.57;2.50;;;17.30;93.90;;;;;;5016132;28;20022;-81
2021/08/05 04:29:00;;;;;;;4.20;2.50;;;17.20;93.90;;;;;;5015337;28;20026;-81
2021/08/05 04:31:26;;;;;;;4.53;2.38;;;17.20;93.80;;;;;;5015794;28;20053;-81
2021/08/05 04:33:52;;;;;;;5.03;2.50;;;17.20;93.90;;;;;;5015880;28;20030;-81
2021/08/05 04:36:17;;;;;;;6.13;3.13;;;17.20;94.00;;;;;;5014743;28;20061;-81
2021/08/05 04:38:43;;;;;;;6.32;2.80;;;17.20;93.90;;;;;;5016641;28;20489;-80
2021/08/05 04:41:09;;;;;;;5.28;2.75;;;17.30;93.80;;;;;;5015348;28;20025;-80
2021/08/05 04:43:34;;;;;;;6.28;2.60;;;17.30;93.60;;;;;;5014808;28;20030;-81
2021/08/05 04:46:00;;;;;;;5.50;2.40;;;17.30;93.60;;;;;;5016167;28;20037;-84
2021/08/05 04:48:27;;;;;;;5.10;2.42;;;17.30;93.60;;;;;;5015362;28;20459;-80
2021/08/05 04:50:54;;;;;;;4.90;2.70;;;17.40;93.50;;;;;;5031954;28;20033;-80
2021/08/05 04:53:19;;;;;;;5.43;2.47;;;17.30;93.40;;;;;;5014346;28;20026;-80
2021/08/05 04:55:45;;;;;;;5.10;2.10;;;17.40;93.50;;;;;;5015009;28;20459;-80
2021/08/05 04:58:11;;;;;;;7.53;2.15;;;17.40;93.70;;;;;;5031010;28;20039;-81
2021/08/05 05:00:39;;;;;;;9.20;2.20;;;17.40;93.30;;;;;;5015821;28;20481;-80
2021/08/05 05:03:05;;;;;;;5.60;2.55;;;17.40;93.40;;;;;;5031019;28;20029;-81
2021/08/05 05:05:32;;;;;;;4.32;2.28;;;17.50;93.20;;;;;;5031299;28;20033;-80
2021/08/05 05:08:14;;;;;;;6.28;2.35;;;17.50;93.20;;;;;;5014615;28;20040;-80
2021/08/05 05:10:40;;;;;;;7.40;2.35;;;17.60;93.20;;;;;;5014550;28;20439;-80
2021/08/05 05:13:05;;;;;;;5.28;2.55;;;17.50;93.20;;;;;;5014471;28;20033;-81
2021/08/05 05:15:31;;;;;;;6.20;2.40;;;17.60;93.30;;;;;;5014843;28;20022;-80
2021/08/05 05:17:57;;;;;;;5.10;2.25;;;17.60;93.30;;;;;;5014505;28;20447;-80
2021/08/05 05:20:22;;;;;;;6.68;2.65;;;17.70;93.00;;;;;;5013915;28;20460;-81
2021/08/05 05:22:48;;;;;;;5.63;2.40;;;17.80;93.00;;;;;;5015356;28;20025;-82
2021/08/05 05:25:14;;;;;;;3.28;2.15;;;17.80;92.80;;;;;;5014439;28;20109;-86
2021/08/05 05:27:41;;;;;;;5.60;2.17;;;17.80;92.80;;;;;;5014917;28;20101;-82
2021/08/05 05:30:08;;;;;;;5.32;2.10;;;17.90;92.80;;;;;;5014195;28;20470;-82
2021/08/05 05:32:33;;;;;;;6.05;2.70;;;17.90;93.10;;;;;;5014534;28;20025;-82
2021/08/05 05:35:00;;;;;;;4.40;2.33;;;17.90;92.70;;;;;;5014316;28;20022;-81
2021/08/05 05:37:26;;;;;;;4.35;2.20;;;17.90;92.60;;;;;;5030300;28;20045;-82
2021/08/05 05:39:54;;;;;;;4.88;2.40;;;18.00;92.60;;;;;;5030448;28;20098;-83
2021/08/05 05:42:20;;;;;;;6.38;2.80;;;18.00;92.60;;;;;;5013109;28;20029;-82
2021/08/05 05:44:46;;;;;;;7.25;2.90;;;18.00;92.50;;;;;;5013326;28;20026;-80
2021/08/05 05:47:12;;;;;;;4.22;2.53;;;18.00;92.50;;;;;;5013233;28;20052;-81
2021/08/05 05:49:38;;;;;;;3.25;2.13;;;18.10;92.20;;;;;;5014009;28;20018;-81
2021/08/05 05:52:04;;;;;;;6.10;2.58;;;18.20;92.10;;;;;;5013614;28;20116;-82
2021/08/05 05:54:30;;;;;;;3.78;2.05;;;18.20;91.90;;;;;;5014108;28;20172;-81
2021/08/05 05:56:55;;;;;;;4.65;2.00;;;18.30;91.80;;;;;;5014719;28;20511;-81
2021/08/05 05:59:21;;;;;;;3.35;2.00;;;18.30;91.60;;;;;;5013283;28;20032;-81
2021/08/05 06:01:47;;;;;;;3.28;1.85;;;18.30;91.50;;;;;;5014037;28;20447;-82
2021/08/05 06:04:12;;;;;;;2.70;1.80;;;18.30;91.30;;;;;;5005663;28;20030;-82
2021/08/05 06:06:38;;;;;;;4.45;1.80;;;18.40;91.10;;;;;;5002397;28;20081;-83
2021/08/05 06:09:03;;;;;;;3.03;2.00;;;18.40;91.10;;;;;;4997073;28;20062;-81
2021/08/05 06:11:29;;;;;;;10.20;1.80;;;18.40;91.10;;;;;;4994061;28;20022;-81
2021/08/05 06:13:56;;;;;;;2.25;1.63;;;18.40;91.00;;;;;;4994653;28;20033;-82
2021/08/05 06:16:23;;;;;;;2.85;1.90;;;18.40;90.90;;;;;;4990803;28;20050;-84
2021/08/05 06:18:49;;;;;;;3.53;1.60;;;18.40;90.70;;;;;;4991019;28;20455;-82
2021/08/05 06:21:15;;;;;;;4.53;1.90;;;18.40;90.90;;;;;;4990862;28;20034;-82
2021/08/05 06:23:40;;;;;;;3.33;1.80;;;18.50;91.10;;;;;;4990924;28;20037;-82
2021/08/05 06:26:06;;;;;;;3.70;1.67;;;18.50;91.40;;;;;;4990900;28;20113;-82
2021/08/05 06:28:33;;;;;;;5.97;2.33;;;18.50;91.10;;;;;;4991323;28;20026;-82
2021/08/05 06:30:59;;;;;;;3.83;2.20;;;18.60;91.00;;;;;;4992337;28;20019;-81
2021/08/05 06:33:25;;;;;;;3.22;1.85;;;18.60;90.90;;;;;;4990703;28;20456;-82
2021/08/05 06:35:51;;;;;;;2.75;1.65;;;18.70;90.70;;;;;;4990390;28;20031;-81
2021/08/05 06:38:17;;;;;;;3.40;1.70;;;18.70;90.70;;;;;;4990579;28;20051;-82
2021/08/05 06:40:46;;;;;;;4.93;1.85;;;18.80;90.60;;;;;;4993299;28;20022;-78
2021/08/05 06:43:12;;;;;;;4.75;2.10;;;18.80;90.40;;;;;;4992885;28;20479;-86
2021/08/05 06:45:37;;;;;;;2.92;1.65;;;18.80;90.10;;;;;;5005776;28;20026;-82
2021/08/05 06:48:03;;;;;;;3.67;2.00;;;18.80;90.20;;;;;;5012192;28;20028;-82
2021/08/05 06:50:29;;;;;;;6.03;1.55;;;18.80;90.10;;;;;;5011869;28;20425;-81
2021/08/05 06:52:55;;;;;;;3.67;1.30;;;18.80;90.00;;;;;;5012693;28;20455;-81
2021/08/05 06:55:21;;;;;;;3.88;1.80;;;18.80;90.10;;;;;;5013441;28;20018;-80
2021/08/05 06:57:47;;;;;;;2.00;1.40;;;18.80;89.90;;;;;;5029413;28;20368;-82
2021/08/05 07:00:13;;;;;;;3.30;1.58;;;18.90;89.70;;;;;;5012339;28;20383;-82
2021/08/05 07:02:39;;;;;;;3.55;1.60;;;18.90;89.60;;;;;;5013679;28;20034;-81
2021/08/05 07:05:06;;;;;;;2.42;1.48;;;18.90;89.20;;;;;;5029256;28;20026;-82
2021/08/05 07:07:32;;;;;;;3.28;1.67;;;19.00;89.40;;;;;;5012877;28;20116;-81
2021/08/05 07:09:58;;;;;;;3.30;1.60;;;19.00;89.40;;;;;;5013092;28;20076;-81
2021/08/05 07:12:24;;;;;;;3.25;1.52;;;19.00;89.10;;;;;;5012567;28;20034;-82
2021/08/05 07:14:49;;;;;;;4.05;1.60;;;19.10;88.70;;;;;;5012757;28;20348;-82
2021/08/05 07:17:15;;;;;;;3.80;1.70;;;19.10;88.60;;;;;;5016743;28;20022;-82
2021/08/05 07:19:42;;;;;;;2.03;1.42;;;19.10;88.30;;;;;;5017054;28;20360;-81
2021/08/05 07:22:08;;;;;;;3.08;1.35;;;19.00;88.10;;;;;;5016577;28;20029;-84
2021/08/05 07:24:34;;;;;;;2.42;1.60;;;19.10;87.70;;;;;;5017173;28;20030;-81
2021/08/05 07:27:00;;;;;;;2.17;1.45;;;19.10;87.60;;;;;;5016850;28;20037;-80
2021/08/05 07:29:25;;;;;;;2.90;1.35;;;19.10;87.20;;;;;;5016483;28;20023;-81
2021/08/05 07:31:51;;;;;;;1.98;1.30;;;19.10;87.40;;;;;;5016868;28;20026;-81
2021/08/05 07:34:17;;;;;;;4.82;2.13;;;19.10;87.20;;;;;;5016308;28;20021;-81
2021/08/05 07:36:43;;;;;;;3.38;1.58;;;19.20;86.90;;;;;;5016056;28;20539;-80
2021/08/05 07:39:11;;;;;;;3.65;1.67;;;19.30;86.80;;;;;;5016015;28;20124;-82
2021/08/05 07:41:38;;;;;;;2.60;1.33;;;19.30;86.60;;;;;;5016793;28;20141;-81
2021/08/05 07:44:05;;;;;;;2.60;1.63;;;19.40;86.00;;;;;;5016412;28;20068;-80
2021/08/05 07:46:30;;;;;;;2.17;1.58;;;19.50;85.60;;;;;;5015951;28;20086;-81
2021/08/05 07:48:56;;;;;;;2.63;1.30;;;19.60;85.30;;;;;;5016496;28;20439;-80
2021/08/05 07:51:22;;;;;;;2.40;1.40;;;19.60;84.50;;;;;;5015986;28;20034;-80
2021/08/05 07:53:48;;;;;;;2.10;1.25;;;19.70;84.40;;;;;;5016281;28;20054;-80
2021/08/05 07:56:13;;;;;;;2.78;1.30;;;19.70;82.90;;;;;;5032275;28;20024;-81
2021/08/05 07:58:39;;;;;;;2.15;1.05;;;19.70;83.10;;;;;;5016269;28;20421;-80
2021/08/05 08:01:05;;;;;;;2.47;1.30;;;19.70;83.50;;;;;;5016855;28;20022;-79
2021/08/05 08:03:31;;;;;;;3.10;1.20;;;19.70;83.20;;;;;;5016423;28;20030;-80
2021/08/05 08:05:57;;;;;;;2.10;1.35;;;19.70;83.90;;;;;;5016633;28;20029;-80
2021/08/05 08:08:23;;;;;;;2.55;1.45;;;19.70;83.80;;;;;;5014969;28;20022;-80
2021/08/05 08:10:48;;;;;;;2.78;1.40;;;19.70;82.60;;;;;;5016565;28;20521;-83
2021/08/05 08:13:14;;;;;;;3.42;1.48;;;19.70;83.20;;;;;;5015010;28;20410;-83
2021/08/05 08:15:40;;;;;;;3.17;1.50;;;19.70;84.10;;;;;;5015526;28;20068;-82
2021/08/05 08:18:05;;;;;;;1.88;1.30;;;19.60;84.50;;;;;;5016559;28;20014;-81
2021/08/05 08:20:31;;;;;;;1.30;1.20;;;19.70;83.70;;;;;;5015921;28;20030;-80
2021/08/05 08:22:58;;;;;;;1.63;1.13;;;19.60;82.40;;;;;;5016136;28;20141;-81
2021/08/05 08:25:24;;;;;;;2.47;1.10;;;19.60;81.60;;;;;;5015099;28;20096;-81
2021/08/05 08:27:49;;;;;;;1.83;1.33;;;19.50;82.30;;;;;;5012386;28;20455;-82
2021/08/05 08:30:15;;;;;;;1.95;1.20;;;19.50;82.40;;;;;;5014061;28;20026;-83
2021/08/05 08:32:43;;;;;;;1.65;1.20;;;19.50;83.60;;;;;;5015033;28;20025;-80
2021/08/05 08:35:10;;;;;;;1.55;1.30;;;19.50;83.20;;;;;;5012057;28;20034;-81
2021/08/05 08:37:36;;;;;;;3.25;1.30;;;19.50;83.50;;;;;;5013376;28;20054;-81
2021/08/05 08:40:03;;;;;;;2.33;1.38;;;19.50;82.70;;;;;;5016568;28;20025;-81
2021/08/05 08:42:30;;;;;;;1.35;0.98;;;19.50;82.60;;;;;;5014245;28;20026;-82
2021/08/05 08:44:55;;;;;;;3.33;1.40;;;19.50;81.80;;;;;;5014714;28;20034;-81
2021/08/05 08:47:22;;;;;;;3.58;1.13;;;19.60;82.20;;;;;;5014101;28;20112;-80
2021/08/05 08:49:52;;;;;;;3.47;1.30;;;19.60;83.00;;;;;;5014531;28;20018;-83
2021/08/05 08:52:23;;;;;;;3.65;1.38;;;19.70;82.80;;;;;;5015054;28;20024;-82
2021/08/05 08:54:50;;;;;;;2.80;1.20;;;19.70;82.20;;;;;;5014870;28;20497;-81
2021/08/05 08:57:20;;;;;;;2.97;1.30;;;19.70;81.90;;;;;;5007730;28;20427;-83
2021/08/05 08:59:46;;;;;;;4.50;1.45;;;19.80;81.60;;;;;;5013963;28;20026;-82
2021/08/05 09:02:13;;;;;;;2.95;1.30;;;19.90;81.30;;;;;;5014599;28;20030;-89
2021/08/05 09:04:40;;;;;;;2.00;1.10;;;19.90;81.20;;;;;;5010217;28;20026;-81
2021/08/05 09:07:06;;;;;;;2.63;1.17;;;20.00;82.40;;;;;;5014947;28;20064;-82
2021/08/05 09:09:32;;;;;;;2.35;1.35;;;20.00;81.30;;;;;;5013694;28;20041;-83
2021/08/05 09:11:58;;;;;;;1.92;1.30;;;20.10;81.60;;;;;;5015493;28;20030;-84
2021/08/05 09:14:44;;;;;;;2.70;1.20;;;20.20;81.60;;;;;;5013590;28;20096;-84
2021/08/05 09:17:17;;;;;;;2.22;1.52;;;20.20;80.10;;;;;;5014908;28;20109;-83
2021/08/05 09:19:43;;;;;;;3.13;1.20;;;20.30;81.40;;;;;;5014548;28;20033;-84
2021/08/05 09:22:09;;;;;;;2.42;1.40;;;20.20;81.00;;;;;;5013893;28;20459;-80
2021/08/05 09:24:34;;;;;;;1.27;1.10;;;20.20;81.50;;;;;;5012684;28;20030;-81
2021/08/05 09:27:02;;;;;;;1.67;1.10;;;20.20;80.60;;;;;;5013553;28;20048;-86
2021/08/05 09:29:29;;;;;;;1.58;1.23;;;20.20;79.60;;;;;;5013305;28;20029;-81
2021/08/05 09:32:00;;;;;;;4.53;1.35;;;20.20;79.20;;;;;;4997019;28;20030;-80
2021/08/05 09:34:45;;;;;;;2.08;1.52;;;20.30;78.70;;;;;;5012709;28;20022;-80
2021/08/05 09:37:14;;;;;;;4.57;1.35;;;20.40;78.70;;;;;;5012559;28;20149;-82
2021/08/05 09:39:45;;;;;;;2.38;1.40;;;20.40;78.90;;;;;;5011627;28;20037;-83
2021/08/05 09:42:17;;;;;;;2.15;1.25;;;20.60;79.40;;;;;;4997410;28;20113;-80
2021/08/05 09:44:46;;;;;;;1.58;1.27;;;20.70;79.10;;;;;;4998935;28;20100;-80
2021/08/05 09:47:19;;;;;;;4.07;1.40;;;20.80;78.70;;;;;;5014204;28;20022;-81
2021/08/05 09:49:51;;;;;;;1.83;1.02;;;20.90;77.50;;;;;;5013680;28;20034;-83
2021/08/05 09:52:32;;;;;;;1.92;1.00;;;21.00;77.50;;;;;;5013187;28;20083;-83
2021/08/05 09:54:59;;;;;;;1.77;1.17;;;21.20;76.80;;;;;;5012955;28;20025;-81
2021/08/05 09:57:28;;;;;;;2.33;1.38;;;21.20;76.60;;;;;;5012136;28;20022;-80
2021/08/05 09:59:59;;;;;;;2.47;1.50;;;21.20;75.60;;;;;;5013443;28;20025;-78
2021/08/05 10:02:26;;;;;;;2.40;1.40;;;21.20;76.80;;;;;;5012320;28;20026;-78
2021/08/05 10:05:08;;;;;;;2.85;1.30;;;21.20;76.70;;;;;;5006910;28;20563;-78
2021/08/05 10:07:44;;;;;;;2.28;1.30;;;21.30;77.20;;;;;;5016474;28;20026;-81
2021/08/05 10:10:10;;;;;;;2.15;1.25;;;21.30;76.50;;;;;;5025506;28;20034;-78
2021/08/05 10:12:37;;;;;;;2.83;1.27;;;21.30;76.80;;;;;;5028687;28;20037;-81
2021/08/05 10:15:05;;;;;;;3.08;1.55;;;21.40;76.90;;;;;;5013239;28;20018;-81
2021/08/05 10:17:32;;;;;;;1.80;1.25;;;21.40;76.40;;;;;;5011841;28;20033;-82
2021/08/05 10:19:59;;;;;;;2.67;1.40;;;21.50;76.50;;;;;;5012871;28;20018;-80
2021/08/05 10:22:25;;;;;;;1.98;1.10;;;21.60;76.60;;;;;;5013486;28;20026;-80
2021/08/05 10:24:51;;;;;;;3.33;1.48;;;21.60;76.60;;;;;;5014218;28;20014;-80
2021/08/05 10:27:20;;;;;;;3.33;1.83;;;21.60;76.70;;;;;;5012198;28;20527;-80
2021/08/05 10:29:48;;;;;;;2.13;1.33;;;21.70;77.20;;;;;;5012526;28;20112;-80
2021/08/05 10:32:15;;;;;;;3.22;1.30;;;21.80;76.80;;;;;;5011702;28;20028;-88
2021/08/05 10:34:41;;;;;;;1.95;1.23;;;21.80;76.60;;;;;;5013061;28;20543;-85
2021/08/05 10:37:11;;;;;;;1.65;1.23;;;21.70;76.40;;;;;;5012670;28;20050;-78
2021/08/05 10:39:39;;;;;;;1.40;1.10;;;21.80;75.40;;;;;;5011249;28;20747;-81
2021/08/05 10:42:08;;;;;;;3.53;1.10;;;21.90;76.10;;;;;;5011886;28;20025;-80
2021/08/05 10:44:36;;;;;;;1.15;1.05;;;21.90;75.50;;;;;;5011743;28;20030;-80
2021/08/05 10:47:03;;;;;;;1.55;1.00;;;21.90;75.00;;;;;;5012600;28;20064;-80
2021/08/05 10:49:29;;;;;;;2.38;1.23;;;21.90;74.60;;;;;;5011582;28;20148;-81
2021/08/05 10:51:54;;;;;;;2.88;1.52;;;21.90;74.90;;;;;;5012675;28;20064;-81
2021/08/05 10:54:53;;;;;;;1.50;1.10;;;21.90;75.00;;;;;;5027069;28;20115;-80
2021/08/05 10:57:23;;;;;;;3.10;1.10;;;21.90;74.60;;;;;;5011306;28;20026;-81
2021/08/05 11:00:08;;;;;;;2.47;1.00;;;21.90;74.40;;;;;;5013914;28;20064;-80
2021/08/05 11:02:55;;;;;;;1.55;1.10;;;22.00;74.50;;;;;;5011975;28;20180;-79
2021/08/05 11:05:23;;;;;;;1.20;1.00;;;22.10;73.10;;;;;;5011412;28;20022;-80
2021/08/05 11:07:51;;;;;;;2.35;1.17;;;22.10;73.20;;;;;;5012082;28;20037;-79
2021/08/05 11:10:25;;;;;;;2.15;1.00;;;22.20;72.70;;;;;;5010782;28;20022;-80
2021/08/05 11:12:56;;;;;;;3.67;1.23;;;22.40;72.50;;;;;;5001821;28;20138;-82
2021/08/05 11:15:29;;;;;;;2.90;1.00;;;22.40;71.80;;;;;;5012899;28;20203;-81
2021/08/05 11:18:10;;;;;;;1.83;0.95;;;22.60;72.20;;;;;;5012413;28;20390;-82
2021/08/05 11:21:06;;;;;;;1.10;1.00;;;22.70;71.80;;;;;;5011851;28;20418;-81
2021/08/05 11:23:34;;;;;;;1.30;0.98;;;22.80;71.30;;;;;;5011497;28;20048;-81
2021/08/05 11:26:00;;;;;;;1.92;0.90;;;22.90;70.90;;;;;;5012499;28;20025;-80
2021/08/05 11:28:26;;;;;;;1.80;1.10;;;23.00;70.50;;;;;;5011572;28;20088;-81
2021/08/05 11:31:07;;;;;;;1.88;0.90;;;23.10;71.00;;;;;;5013420;28;20037;-80
2021/08/05 11:36:10;;;;;;;;;;;23.10;71.10;;;;;;5013130;28;20037;-82
2021/08/05 11:39:09;;;;;;;2.85;1.08;;;23.10;71.00;;;;;;5028005;28;20007;-80
2021/08/05 11:41:57;;;;;;;3.72;1.20;;;23.20;70.90;;;;;;5012773;28;20068;-79
2021/08/05 11:44:25;;;;;;;1.15;0.80;;;23.20;70.20;;;;;;5026768;28;20030;-80
2021/08/05 11:47:06;;;;;;;1.70;1.08;;;23.30;70.20;;;;;;5011858;28;20026;-81
2021/08/05 11:49:43;;;;;;;1.50;1.10;;;23.40;69.90;;;;;;5012363;28;20022;-82
2021/08/05 11:52:20;;;;;;;3.90;1.00;;;23.50;70.30;;;;;;5004604;28;20031;-82
2021/08/05 11:55:11;;;;;;;4.40;1.23;;;23.50;70.20;;;;;;5009530;28;20045;-79
2021/08/05 11:57:45;;;;;;;1.13;0.70;;;23.40;70.40;;;;;;5027043;28;20030;-82
2021/08/05 12:00:20;;;;;;;1.40;1.00;;;23.40;69.30;;;;;;5012777;28;20022;-80
2021/08/05 12:02:47;;;;;;;1.42;0.80;;;23.40;69.20;;;;;;5013136;28;20018;-80
2021/08/05 12:05:14;;;;;;;1.02;0.88;;;23.40;69.00;;;;;;5015163;28;20041;-80
2021/08/05 12:07:50;;;;;;;1.83;0.80;;;23.40;69.70;;;;;;5015808;28;20030;-79
2021/08/05 12:10:29;;;;;;;5.10;1.13;;;23.50;70.30;;;;;;5015384;28;20455;-79
2021/08/05 12:12:59;;;;;;;1.27;0.80;;;23.50;68.70;;;;;;5014870;28;20067;-80
2021/08/05 12:15:30;;;;;;;1.42;0.95;;;23.60;69.10;;;;;;5008257;28;20043;-82
2021/08/05 12:17:58;;;;;;;1.05;0.95;;;23.70;69.00;;;;;;5014356;28;20026;-83
2021/08/05 12:20:34;;;;;;;0.80;0.77;;;23.70;68.90;;;;;;5013936;28;20025;-81
2021/08/05 12:23:13;;;;;;;1.83;0.80;;;23.60;67.50;;;;;;5013117;28;20029;-80
2021/08/05 12:28:24;;;;;;;0.57;0.52;;;23.60;63.80;;;;;;5015974;28;20386;-82
2021/08/05 12:30:58;;;;;;;0.75;0.30;;;23.60;62.60;;;;;;5015279;28;20025;-80
2021/08/05 12:33:32;;;;;;;0.63;0.40;;;23.50;63.70;;;;;;5015059;28;20030;-81
2021/08/05 12:36:04;;;;;;;0.73;0.50;;;23.50;63.70;;;;;;5015677;28;20068;-82
2021/08/05 12:38:41;;;;;;;0.90;0.45;;;23.50;64.10;;;;;;5014848;28;20030;-85
2021/08/05 12:41:07;;;;;;;0.50;0.40;;;23.50;63.80;;;;;;5013701;28;20022;-86
2021/08/05 12:43:41;;;;;;;0.73;0.35;;;23.50;62.80;;;;;;5031148;28;20339;-84
2021/08/05 12:46:10;;;;;;;0.47;0.40;;;23.60;62.40;;;;;;5010214;28;20022;-85
2021/08/05 12:48:36;;;;;;;1.02;0.50;;;23.70;63.50;;;;;;5014354;28;20017;-87
2021/08/05 12:51:02;;;;;;;0.68;0.60;;;23.80;63.60;;;;;;5016328;28;20037;-85
2021/08/05 12:53:30;;;;;;;0.82;0.40;;;23.90;64.00;;;;;;5015657;28;20387;-87
2021/08/05 12:56:02;;;;;;;0.60;0.45;;;24.10;63.90;;;;;;5014312;28;20064;-83
2021/08/05 12:58:27;;;;;;;;;;;24.30;63.90;;;;;;5014108;28;20084;-84
2021/08/05 13:01:13;;;;;;;0.50;0.50;;;24.40;60.30;;;;;;5014885;28;19905;-84